Home > Products > Valid Products > TAF

000
FTUS43 KFSD 232300
TAFSUX
TAF
KSUX 232327Z 2400/2424 05006KT P6SM SKC
     FM240100 09005KT P6SM SKC
     FM240900 12007KT P6SM BKN120
     FM241400 16014G23KT P6SM SCT060 OVC100
      TEMPO 2414/2417 P6SM TSRA OVC060CB=



000
FTUS43 KFSD 232300
TAFSUX
TAF
KSUX 232327Z 2400/2424 05006KT P6SM SKC
     FM240100 09005KT P6SM SKC
     FM240900 12007KT P6SM BKN120
     FM241400 16014G23KT P6SM SCT060 OVC100
      TEMPO 2414/2417 P6SM TSRA OVC060CB=



000
FTUS43 KFSD 232300
TAFFSD
TAF
KFSD 232327Z 2400/2424 08007KT P6SM FEW250
     FM240100 10005KT P6SM SKC
     FM240900 13008KT P6SM BKN120
      TEMPO 2413/2416 P6SM TSRA BKN050CB
     FM241600 16015G24KT P6SM SCT050 BKN100=



000
FTUS43 KFSD 232300
TAFHON
TAF
KHON 232327Z 2400/2424 13008KT P6SM SKC
     FM240500 14010KT P6SM BKN120
      TEMPO 2409/2412 P6SM TSRA BKN060CB
     FM241400 15012G18KT P6SM BKN120
     FM241600 15016G24KT P6SM SCT060 BKN250=



000
FTUS43 KFSD 231700
TAFSUX
TAF
KSUX 231731Z 2318/2418 05006KT P6SM FEW045
     FM240100 09005KT P6SM SKC
     FM240900 12007KT P6SM BKN120
     FM241400 16014G23KT P6SM OVC100
      TEMPO 2414/2417 P6SM TSRA OVC060CB=



000
FTUS43 KFSD 231700
TAFSUX
TAF
KSUX 231731Z 2318/2418 05006KT P6SM FEW045
     FM240100 09005KT P6SM SKC
     FM240900 12007KT P6SM BKN120
     FM241400 16014G23KT P6SM OVC100
      TEMPO 2414/2417 P6SM TSRA OVC060CB=



000
FTUS43 KFSD 231700
TAFFSD
TAF
KFSD 231731Z 2318/2418 07005KT P6SM FEW045
     FM240100 10005KT P6SM SKC
     FM240900 13008KT P6SM BKN120
      TEMPO 2410/2414 P6SM TSRA BKN050CB
     FM241500 16015G24KT P6SM BKN100=



000
FTUS43 KFSD 231700
TAFHON
TAF
KHON 231731Z 2318/2418 14008KT P6SM SKC
     FM240500 14010KT P6SM BKN120
      TEMPO 2407/2410 P6SM TSRA BKN060CB
     FM241300 15012G18KT P6SM BKN120
     FM241600 15016G24KT P6SM SCT060 BKN250=



000
FTUS43 KFSD 231100 RRA
TAFSUX
TAF
KSUX 231148Z 2312/2412 04004KT P6SM SCT250
     FM231700 06007KT P6SM SCT250
     FM240100 10007KT P6SM SCT250
     FM240700 13006KT P6SM SCT060 BKN110 PROB30 2409/2412 5SM -SHRA
      BKN040=



000
FTUS43 KFSD 231100 RRA
TAFSUX
TAF
KSUX 231148Z 2312/2412 04004KT P6SM SCT250
     FM231700 06007KT P6SM SCT250
     FM240100 10007KT P6SM SCT250
     FM240700 13006KT P6SM SCT060 BKN110 PROB30 2409/2412 5SM -SHRA
      BKN040=



000
FTUS43 KFSD 231100 RRA
TAFFSD
TAF
KFSD 231148Z 2312/2412 03004KT P6SM SCT120 BKN250
     FM231700 10007KT P6SM SCT250
     FM240100 12007KT P6SM SCT250
     FM240600 14007KT P6SM BKN050 BKN110 PROB30 2409/2412 5SM -SHRA
      BKN040=



000
FTUS43 KFSD 231100 RRA
TAFHON
TAF
KHON 231148Z 2312/2412 12004KT P6SM BKN250
     FM231600 14008KT P6SM SCT250
     FM240200 14009KT P6SM SCT060 BKN100
     FM240500 13008KT P6SM BKN050 BKN100 PROB30 2406/2410 5SM -SHRA
      BKN040=



000
FTUS43 KFSD 230500
TAFSUX
TAF
KSUX 230523Z 2306/2406 02005KT P6SM SKC
     FM231100 04006KT P6SM SCT100
     FM231700 06007KT P6SM SCT250
     FM240100 10007KT P6SM SCT250=



000
FTUS43 KFSD 230500
TAFFSD
TAF
KFSD 230523Z 2306/2406 02006KT P6SM FEW110 SCT250
     FM231700 10007KT P6SM SCT250
     FM240000 12007KT P6SM SCT250=



000
FTUS43 KFSD 230500
TAFHON
TAF
KHON 230523Z 2306/2406 06005KT P6SM FEW120 BKN250
     FM231000 13006KT P6SM SCT120
     FM231600 15010KT P6SM SCT250
     FM240300 14009KT P6SM SCT060 BKN100=



000
FTUS43 KFSD 230500
TAFSUX
TAF
KSUX 230523Z 2306/2406 02005KT P6SM SKC
     FM231100 04006KT P6SM SCT100
     FM231700 06007KT P6SM SCT250
     FM240100 10007KT P6SM SCT250=



000
FTUS43 KFSD 222300
TAFSUX
TAF
KSUX 222325Z 2300/2324 36013KT P6SM SCT040 SCT200
     FM230100 01007KT P6SM SKC
     FM231400 04009KT P6SM SCT100=



000
FTUS43 KFSD 222300
TAFFSD
TAF
KFSD 222325Z 2300/2324 02006KT P6SM FEW250
     FM231300 07005KT P6SM SCT120=



000
FTUS43 KFSD 222300
TAFSUX
TAF
KSUX 222325Z 2300/2324 36013KT P6SM SCT040 SCT200
     FM230100 01007KT P6SM SKC
     FM231400 04009KT P6SM SCT100=



000
FTUS43 KFSD 222300
TAFHON
TAF
KHON 222325Z 2300/2324 03006KT P6SM SKC
     FM230500 09005KT P6SM BKN250
     FM231100 13006KT P6SM BKN120
     FM231500 15011KT P6SM BKN090=



000
FTUS43 KFSD 221900 AAA
TAFSUX
TAF AMD
KSUX 221947Z 2220/2318 36013KT P6SM SCT045 BKN200
      TEMPO 2220/2222 -SHRA BKN045
     FM230030 01007KT P6SM SKC
     FM231100 04007KT P6SM SCT100=



000
FTUS43 KFSD 221900 AAA
TAFSUX
TAF AMD
KSUX 221947Z 2220/2318 36013KT P6SM SCT045 BKN200
      TEMPO 2220/2222 -SHRA BKN045
     FM230030 01007KT P6SM SKC
     FM231100 04007KT P6SM SCT100=



000
FTUS43 KFSD 221900 AAA
TAFHON
TAF AMD
KHON 221947Z 2220/2318 01013KT P6SM SKC
     FM230030 03006KT P6SM SKC
     FM230500 09005KT P6SM BKN250
     FM231100 13006KT P6SM BKN120
     FM231500 15011KT P6SM BKN090=



000
FTUS43 KFSD 221900 AAA
TAFFSD
TAF AMD
KFSD 221943Z 2220/2318 04013KT P6SM FEW035 SCT200
     FM230030 03006KT P6SM SKC
     FM231100 07005KT P6SM SCT120=



000
FTUS43 KFSD 221700
TAFSUX
TAF
KSUX 221725Z 2218/2318 36013G18KT P6SM BKN200
     FM230030 01007KT P6SM SKC
     FM231100 04007KT P6SM SCT100=



000
FTUS43 KFSD 221700
TAFSUX
TAF
KSUX 221725Z 2218/2318 36013G18KT P6SM BKN200
     FM230030 01007KT P6SM SKC
     FM231100 04007KT P6SM SCT100=



000
FTUS43 KFSD 221700
TAFHON
TAF
KHON 221725Z 2218/2318 01012G18KT P6SM SCT200
     FM230030 03006KT P6SM SKC
     FM230500 09005KT P6SM BKN250
     FM231100 13006KT P6SM BKN120
     FM231500 15011KT P6SM BKN090=



000
FTUS43 KFSD 221700
TAFFSD
TAF
KFSD 221725Z 2218/2318 01013G18KT P6SM SCT030 BKN200
     FM230030 02006KT P6SM SKC
     FM231100 07005KT P6SM SCT120=



000
FTUS43 KFSD 221600 AAB
TAFFSD
TAF AMD
KFSD 221610Z 2216/2312 36013KT P6SM SCT023
      TEMPO 2216/2218 BKN023
     FM221800 01013G22KT P6SM SCT030
     FM230200 05004KT P6SM SCT200=



000
FTUS43 KFSD 221400 AAA
TAFFSD
TAF AMD
KFSD 221456Z 2215/2312 36013KT P6SM SCT020
      TEMPO 2215/2217 BKN020
     FM221700 01013G22KT P6SM SCT030
     FM230200 05004KT P6SM SCT200=



000
FTUS43 KFSD 221400 AAA
TAFHON
TAF AMD
KHON 221422Z 2214/2312 35014KT P6SM SCT015
      TEMPO 2215/2217 BKN015
     FM221700 01013G24KT P6SM SCT050
     FM230200 05004KT P6SM SCT200=



000
FTUS43 KFSD 221200 AAA
TAFFSD
TAF AMD
KFSD 221205Z 2212/2312 02012KT P6SM -TSRA SCT100CB BKN150
     FM221300 36014KT P6SM SCT025
     FM221700 01013G24KT P6SM SCT050
     FM230200 05004KT P6SM SCT200=



000
FTUS43 KFSD 221100 CCA
TAFFSD
TAF COR
KFSD 221148Z 2212/2312 35012KT P6SM -SHRA SCT100
     FM221300 35014KT P6SM SCT025
     FM221700 01013G24KT P6SM SCT050
     FM230200 05004KT P6SM SCT200=



000
FTUS43 KFSD 221100
TAFSUX
TAF
KSUX 221120Z 2212/2312 35010KT P6SM SCT200
     FM221500 35014G20KT P6SM SCT030
     FM222100 01013KT P6SM SCT050
     FM230100 06005KT P6SM SCT200=



000
FTUS43 KFSD 221100
TAFHON
TAF
KHON 221120Z 2212/2312 34010KT P6SM SCT100
     FM221300 35014KT P6SM SCT020
     FM221700 01013G24KT P6SM SCT050
     FM230200 05004KT P6SM SCT200=



000
FTUS43 KFSD 221100
TAFSUX
TAF
KSUX 221120Z 2212/2312 35010KT P6SM SCT200
     FM221500 35014G20KT P6SM SCT030
     FM222100 01013KT P6SM SCT050
     FM230100 06005KT P6SM SCT200=



000
FTUS43 KFSD 221100
TAFFSD
TAF
KFSD 221120Z 2212/2312 35012KT P6SM SCT060 SCT120
     FM221400 35014KT P6SM SCT025
     FM221700 01013G24KT P6SM SCT050
     FM230200 05004KT P6SM SCT200=



000
FTUS43 KFSD 220800 AAB
TAFFSD
TAF AMD
KFSD 220853Z 2209/2306 35007KT P6SM SCT120
     FM221000 35012KT P6SM -RA SCT060 SCT120
     FM221300 35014G20KT P6SM SCT025
     FM222100 01013KT P6SM SCT045
     FM230100 03005KT P6SM FEW150=



000
FTUS43 KFSD 220800 AAA
TAFHON
TAF AMD
KHON 220828Z 2208/2306 34010KT P6SM VCSH SCT100
      TEMPO 2209/2210 -RA SCT060
     FM221100 34010KT P6SM SCT100
     FM221400 35014KT P6SM FEW020
     FM221800 01013G24KT P6SM SCT045
     FM230200 05004KT P6SM SCT250=



000
FTUS43 KFSD 220700 AAA
TAFFSD
TAF AMD
KFSD 220740Z 2208/2306 27012KT 4SM BR SCT200
     FM220830 35007KT P6SM SCT120
     FM221500 35014G20KT P6SM SCT025
     FM222100 01013KT P6SM SCT045
     FM230100 03005KT P6SM FEW150=



000
FTUS43 KFSD 220500
TAFHON
TAF
KHON 220520Z 2206/2306 34013KT P6SM SCT200
     FM221400 35014KT P6SM FEW020
     FM221800 01013G24KT P6SM SCT045
     FM230200 05004KT P6SM SCT250=



000
FTUS43 KFSD 220500
TAFSUX
TAF
KSUX 220520Z 2206/2306 26006KT P6SM SCT250
     FM220800 35012KT P6SM SCT200
     FM221500 35014G20KT P6SM SCT025
     FM222100 01013KT P6SM SCT045
     FM230100 03005KT P6SM FEW150=



000
FTUS43 KFSD 220500
TAFSUX
TAF
KSUX 220520Z 2206/2306 26006KT P6SM SCT250
     FM220800 35012KT P6SM SCT200
     FM221500 35014G20KT P6SM SCT025
     FM222100 01013KT P6SM SCT045
     FM230100 03005KT P6SM FEW150=



000
FTUS43 KFSD 220500
TAFFSD
TAF
KFSD 220520Z 2206/2306 25006KT P6SM SCT250
     FM220800 35012KT P6SM SCT200
     FM221500 35014G20KT P6SM SCT025
     FM222100 01013KT P6SM SCT045
     FM230100 03005KT P6SM FEW150=



000
FTUS43 KFSD 220400 AAA
TAFHON
TAF AMD
KHON 220403Z 2204/2224 33008KT P6SM SCT250
     FM220800 34011KT P6SM SCT250
     FM221100 35014G19KT P6SM FEW025
     FM221900 01013G18KT P6SM SCT045
     FM222300 03008KT P6SM FEW045 SCT150=



000
FTUS43 KFSD 212300
TAFSUX
TAF
KSUX 212340Z 2200/2224 16012KT P6SM BKN150
     FM220300 17004KT P6SM SCT200
     FM221200 34010KT P6SM SKC
     FM221600 35012G17KT P6SM SCT030
     FM222200 01010KT P6SM FEW040=



000
FTUS43 KFSD 212300
TAFHON
TAF
KHON 212340Z 2200/2224 16012KT P6SM FEW120
     FM220200 23005KT P6SM SCT250
     FM220800 34011KT P6SM SKC
     FM221100 35014G19KT P6SM FEW025
     FM221900 01013G18KT P6SM SCT045
     FM222300 03008KT P6SM FEW045 SCT150=



000
FTUS43 KFSD 212300
TAFSUX
TAF
KSUX 212340Z 2200/2224 16012KT P6SM BKN150
     FM220300 17004KT P6SM SCT200
     FM221200 34010KT P6SM SKC
     FM221600 35012G17KT P6SM SCT030
     FM222200 01010KT P6SM FEW040=



000
FTUS43 KFSD 212300
TAFFSD
TAF
KFSD 212340Z 2200/2224 16013G18KT P6SM SCT150
     FM220100 18007KT P6SM SCT150
     FM220600 27006KT P6SM SKC
     FM221000 35012KT P6SM SCT200
     FM221500 35014G19KT P6SM SCT030
     FM222100 01013KT P6SM SCT045=



000
FTUS43 KFSD 212100 AAB
TAFFSD
TAF AMD
KFSD 212116Z 2121/2218 17012G18KT P6SM SCT025 BKN150
     FM220100 18005KT P6SM SCT150
     FM221200 35008KT P6SM SKC
     FM221500 35014KT P6SM SCT025=



000
FTUS43 KFSD 211900 AAA
TAFFSD
TAF AMD
KFSD 211944Z 2120/2218 18014G18KT P6SM BKN025
      TEMPO 2121/2123 SCT025
     FM212300 18014KT P6SM SCT030 BKN150
     FM220300 18004KT P6SM SCT120
     FM221200 35008KT P6SM SKC
     FM221500 35014KT P6SM SCT025=



000
FTUS43 KFSD 211700
TAFSUX
TAF
KSUX 211734Z 2118/2218 15014KT P6SM SCT025 BKN150
     FM212000 16012KT P6SM SCT040 BKN150
     FM220300 17004KT P6SM SCT200
     FM221500 34008KT P6SM SKC
     FM221700 35012KT P6SM SCT030=



000
FTUS43 KFSD 211700
TAFFSD
TAF
KFSD 211734Z 2118/2218 15014KT P6SM SCT025
     FM212000 16014KT P6SM SCT040 BKN150
     FM220300 18004KT P6SM SCT120
     FM221200 35008KT P6SM SKC
     FM221500 35014KT P6SM SCT025=



000
FTUS43 KFSD 211700
TAFHON
TAF
KHON 211734Z 2118/2218 15012KT P6SM SCT030 BKN150
     FM212000 16014KT P6SM SCT040
     FM220200 19005KT P6SM SCT200
     FM221100 34010KT P6SM SKC
     FM221400 33014KT P6SM SCT025=



000
FTUS43 KFSD 211700
TAFSUX
TAF
KSUX 211734Z 2118/2218 15014KT P6SM SCT025 BKN150
     FM212000 16012KT P6SM SCT040 BKN150
     FM220300 17004KT P6SM SCT200
     FM221500 34008KT P6SM SKC
     FM221700 35012KT P6SM SCT030=



000
FTUS43 KFSD 211500 AAA
TAFSUX
TAF AMD
KSUX 211550Z 2116/2212 16008KT P6SM BKN015
      TEMPO 2116/2117 SCT015
     FM211700 16010KT P6SM SCT025
     FM211900 16012KT P6SM SCT040
     FM220500 24005KT P6SM SCT200=



000
FTUS43 KFSD 211500 AAA
TAFHON
TAF AMD
KHON 211548Z 2116/2212 13010KT P6SM BKN015
      TEMPO 2116/2117 SCT015
     FM211700 15012KT P6SM SCT030
     FM211900 16014KT P6SM SCT040
     FM220300 22004KT P6SM SCT200
     FM221000 35010KT P6SM SKC=



000
FTUS43 KFSD 211500 AAA
TAFFSD
TAF AMD
KFSD 211547Z 2116/2212 13010KT P6SM BKN015
      TEMPO 2116/2117 SCT015
     FM211700 15012KT P6SM SCT025
     FM211900 16014KT P6SM SCT040
     FM220500 22004KT P6SM SCT200
     FM221000 35010KT P6SM SKC=



000
FTUS43 KFSD 211200 AAA
TAFFSD
TAF AMD
KFSD 211250Z 2113/2212 13005KT P6SM BKN008
      TEMPO 2113/2115 SCT008
     FM211500 16012KT P6SM SCT030
     FM211700 16014KT P6SM SCT050
     FM220500 22004KT P6SM SCT200
     FM221000 35010KT P6SM SKC=



000
FTUS43 KFSD 211100 CCA
TAFHON
TAF COR
KHON 211140Z 2112/2212 13005KT P6SM FEW100
      TEMPO 2112/2114 5SM BR SCT005
     FM211600 16012KT P6SM SCT035 BKN150
     FM220300 22004KT P6SM SCT200
     FM221000 35010KT P6SM SKC=



000
FTUS43 KFSD 211100 CCA
TAFFSD
TAF COR
KFSD 211140Z 2112/2212 13005KT P6SM SCT008
     FM211500 16012KT P6SM SCT035 BKN150
     FM220500 22004KT P6SM SCT200
     FM221000 35010KT P6SM SKC=



000
FTUS43 KFSD 211100 CCA
TAFSUX
TAF COR
KSUX 211140Z 2112/2212 13005KT P6SM SCT150
     FM211600 16012KT P6SM SCT035 BKN150
     FM220500 24005KT P6SM SCT200=



000
FTUS43 KFSD 211100 CCA
TAFSUX
TAF COR
KSUX 211140Z 2112/2212 13005KT P6SM SCT150
     FM211600 16012KT P6SM SCT035 BKN150
     FM220500 24005KT P6SM SCT200=



000
FTUS43 KFSD 211100
TAFHON
TAF
KHON 211126Z 2112/2212 13005KT P6SM FEW100
      TEMPO 2112/2113 5SM BR SCT005
     FM211600 16012KT P6SM SCT035 BKN150
     FM220300 22004KT P6SM SCT200
     FM221000 35010KT P6SM SKC=



000
FTUS43 KFSD 211100
TAFSUX
TAF
KSUX 211126Z 2112/2212 13005KT P6SM SCT150
     FM211600 16012KT P6SM SCT035 BKN150
     FM220500 24005KT P6SM SCT200=



000
FTUS43 KFSD 211100
TAFFSD
TAF
KFSD 211126Z 2112/2212 13005KT P6SM FEW250
     FM211600 16012KT P6SM SCT035 BKN150
     FM220500 22004KT P6SM SCT200
     FM221000 35010KT P6SM SKC=



000
FTUS43 KFSD 211000 AAA
TAFSUX
TAF AMD
KSUX 211005Z 2110/2206 13005KT P6SM SCT008 SCT100
      TEMPO 2111/2113 5SM BR
     FM211600 16012KT P6SM BKN200
     FM220500 35009KT P6SM SCT100=



000
FTUS43 KFSD 211000 AAA
TAFHON
TAF AMD
KHON 211005Z 2110/2206 13005KT 6SM BR SCT005 SCT100
      TEMPO 2111/2114 3SM BR BKN008
     FM211600 16012KT P6SM BKN200
     FM220500 35009KT P6SM SCT100=



000
FTUS43 KFSD 211000 AAA
TAFFSD
TAF AMD
KFSD 211005Z 2110/2206 13005KT P6SM SCT008 SCT100
      TEMPO 2111/2113 5SM BR
     FM211600 16012KT P6SM BKN200
     FM220500 35009KT P6SM SCT100=



000
FTUS43 KFSD 211000 AAA
TAFSUX
TAF AMD
KSUX 211005Z 2110/2206 13005KT P6SM SCT008 SCT100
      TEMPO 2111/2113 5SM BR
     FM211600 16012KT P6SM BKN200
     FM220500 35009KT P6SM SCT100=



000
FTUS43 KFSD 210500
TAFSUX
TAF
KSUX 210527Z 2106/2206 15008KT P6SM SKC
     FM211000 14006KT 5SM BR SCT004 BKN008
     FM211500 14007KT 5SM BR SCT008 BKN015
     FM211700 16009KT P6SM SCT023
     FM211900 17011G18KT P6SM FEW030 BKN200
     FM220100 19009KT P6SM BKN150=



000
FTUS43 KFSD 210500
TAFHON
TAF
KHON 210527Z 2106/2206 14007KT P6SM SCT250
     FM211000 13005KT 4SM BR SCT004 BKN008
     FM211500 14007KT P6SM SCT008
     FM211700 16012KT P6SM BKN200
     FM220500 35009KT P6SM SCT100=



000
FTUS43 KFSD 210500
TAFFSD
TAF
KFSD 210527Z 2106/2206 16010KT P6SM FEW250
     FM211000 15007KT 5SM BR SCT004 BKN008
     FM211600 16008KT P6SM SCT008 BKN015
     FM211900 16011KT P6SM SCT022
     FM212000 17013G20KT P6SM BKN200
     FM220100 18008KT P6SM SCT100=



000
FTUS43 KFSD 210500
TAFSUX
TAF
KSUX 210527Z 2106/2206 15008KT P6SM SKC
     FM211000 14006KT 5SM BR SCT004 BKN008
     FM211500 14007KT 5SM BR SCT008 BKN015
     FM211700 16009KT P6SM SCT023
     FM211900 17011G18KT P6SM FEW030 BKN200
     FM220100 19009KT P6SM BKN150=



    US Dept of Commerce
    National Oceanic and Atmospheric Administration
    National Weather Service
    1325 East West Highway
    Silver Spring, MD 20910
    Page Author: NWS Internet Services Team
Disclaimer
Information Quality
Credits
Glossary
Privacy Policy
Freedom of Information Act (FOIA)
About Us
Career Opportunities